createdAt,value
2023-02-11T00:01:19.424Z,96.98
2023-02-11T00:03:46.082Z,96.97
2023-02-11T00:06:12.745Z,96.76
2023-02-11T00:08:39.808Z,96.91
2023-02-11T00:11:06.679Z,96.72
2023-02-11T00:13:35.694Z,96.13
2023-02-11T00:16:08.222Z,96.16
2023-02-11T00:18:36.490Z,96.22
2023-02-11T00:21:08.675Z,96.09
2023-02-11T00:23:42.426Z,95.89
2023-02-11T00:26:23.075Z,96.22
2023-02-11T00:28:51.458Z,96.30
2023-02-11T00:31:19.598Z,97.10
2023-02-11T00:33:46.777Z,96.96
2023-02-11T00:36:19.351Z,98.14
2023-02-11T00:38:47.826Z,98.50
2023-02-11T00:41:15.464Z,98.68
2023-02-11T00:43:42.136Z,98.29
2023-02-11T00:46:11.892Z,98.15
2023-02-11T00:48:38.695Z,98.33
2023-02-11T00:51:05.830Z,98.72
2023-02-11T00:53:33.138Z,98.23
2023-02-11T00:56:01.066Z,98.17
2023-02-11T00:58:30.046Z,97.47
2023-02-11T01:00:56.828Z,97.91
2023-02-11T01:03:24.018Z,98.18
2023-02-11T01:05:51.484Z,98.24
2023-02-11T01:08:18.325Z,98.08
2023-02-11T01:10:53.341Z,98.35
2023-02-11T01:13:20.006Z,98.46
2023-02-11T01:15:46.688Z,98.26
2023-02-11T01:18:13.256Z,97.81
2023-02-11T01:20:39.753Z,98.13
2023-02-11T01:23:06.344Z,97.50
2023-02-11T01:25:32.917Z,98.90
2023-02-11T01:27:59.493Z,99.39
2023-02-11T01:30:33.445Z,99.33
2023-02-11T01:33:00.025Z,99.63
2023-02-11T01:35:29.558Z,98.62
2023-02-11T01:37:56.193Z,97.98
2023-02-11T01:40:22.792Z,97.74
2023-02-11T01:42:51.100Z,98.61
2023-02-11T01:45:47.037Z,97.88
2023-02-11T01:48:22.415Z,98.59
2023-02-11T01:50:52.777Z,98.83
2023-02-11T01:53:38.096Z,98.85
2023-02-11T01:56:24.562Z,99.04
2023-02-11T01:58:53.389Z,99.06
2023-02-11T02:01:25.702Z,98.73
2023-02-11T02:03:56.483Z,98.35
2023-02-11T02:06:29.575Z,97.73
2023-02-11T02:09:03.369Z,97.75
2023-02-11T02:11:29.976Z,98.29
2023-02-11T02:13:56.619Z,98.28
2023-02-11T02:16:29.910Z,97.86
2023-02-11T02:19:19.535Z,97.73
2023-02-11T02:22:22.080Z,98.05
2023-02-11T02:25:10.575Z,97.57
2023-02-11T02:27:57.904Z,97.72
2023-02-11T02:30:36.169Z,97.08
2023-02-11T02:33:22.420Z,96.93
2023-02-11T02:35:56.410Z,97.57
2023-02-11T02:38:31.457Z,96.67
2023-02-11T02:41:11.218Z,96.90
2023-02-11T02:43:45.160Z,97.33
2023-02-11T02:46:14.363Z,96.90
2023-02-11T02:48:43.643Z,97.31
2023-02-11T02:51:31.525Z,97.62
2023-02-11T02:54:16.310Z,97.54
2023-02-11T02:56:52.770Z,97.53
2023-02-11T02:59:58.074Z,97.57
2023-02-11T03:02:39.732Z,97.80
2023-02-11T03:05:12.837Z,97.81
2023-02-11T03:07:50.977Z,98.26
2023-02-11T03:10:25.135Z,98.19
2023-02-11T03:12:53.699Z,97.69
2023-02-11T03:15:23.258Z,97.94
2023-02-11T03:17:53.169Z,97.82
2023-02-11T03:20:25.294Z,97.48
2023-02-11T03:23:29.470Z,97.02
2023-02-11T03:26:02.749Z,97.24
2023-02-11T03:28:53.469Z,97.91
2023-02-11T03:31:47.779Z,97.25
2023-02-11T03:34:33.517Z,97.54
2023-02-11T03:37:06.575Z,97.20
2023-02-11T03:39:40.856Z,97.47
2023-02-11T03:42:10.944Z,97.57
2023-02-11T03:44:46.519Z,96.58
2023-02-11T03:47:15.563Z,96.71
2023-02-11T03:49:45.093Z,97.60
2023-02-11T03:52:13.048Z,97.21
2023-02-11T03:54:42.808Z,97.71
2023-02-11T03:57:09.329Z,97.42
2023-02-11T03:59:53.902Z,98.12
2023-02-11T04:02:25.156Z,98.22
2023-02-11T04:04:51.857Z,98.83
2023-02-11T04:07:18.566Z,99.02
2023-02-11T04:09:45.070Z,99.92
2023-02-11T04:12:11.946Z,99.73
2023-02-11T04:14:38.659Z,99.34
2023-02-11T04:17:05.627Z,99.20
2023-02-11T04:19:32.221Z,98.98
2023-02-11T04:21:58.990Z,99.39
2023-02-11T04:24:29.199Z,99.63
2023-02-11T04:26:55.842Z,99.84
2023-02-11T04:29:22.605Z,99.78
2023-02-11T04:31:49.416Z,99.59
2023-02-11T04:34:17.692Z,99.79
2023-02-11T04:36:44.383Z,99.91
2023-02-11T04:39:11.009Z,99.54
2023-02-11T04:41:37.642Z,99.48
2023-02-11T04:44:06.828Z,100.00
2023-02-11T04:46:33.382Z,100.00
2023-02-11T04:49:07.494Z,100.00
2023-02-11T04:51:34.005Z,100.00
2023-02-11T04:54:00.564Z,100.00
2023-02-11T04:56:29.085Z,100.00
2023-02-11T04:58:55.685Z,100.00
2023-02-11T05:01:22.371Z,100.00
2023-02-11T05:03:49.490Z,100.00
2023-02-11T05:06:18.050Z,100.00
2023-02-11T05:08:44.582Z,100.00
2023-02-11T05:11:19.796Z,100.00
2023-02-11T05:13:46.790Z,100.00
2023-02-11T05:16:13.982Z,100.00
2023-02-11T05:18:42.708Z,100.00
2023-02-11T05:21:11.176Z,100.00
2023-02-11T05:23:39.265Z,100.00
2023-02-11T05:26:06.728Z,100.00
2023-02-11T05:28:33.552Z,100.00
2023-02-11T05:31:00.160Z,100.00
2023-02-11T05:33:26.736Z,100.00
2023-02-11T05:35:58.654Z,100.00
2023-02-11T05:38:25.842Z,100.00
2023-02-11T05:40:52.382Z,100.00
2023-02-11T05:43:18.944Z,100.00
2023-02-11T05:45:45.502Z,100.00
2023-02-11T05:48:12.054Z,100.00
2023-02-11T05:50:38.945Z,100.00
2023-02-11T05:53:05.904Z,100.00
2023-02-11T05:55:35.052Z,100.00
2023-02-11T05:58:01.937Z,100.00
2023-02-11T06:00:28.511Z,100.00
2023-02-11T06:02:55.309Z,100.00
2023-02-11T06:05:22.089Z,100.00
2023-02-11T06:07:48.566Z,100.00
2023-02-11T06:10:15.146Z,100.00
2023-02-11T06:12:41.808Z,100.00
2023-02-11T06:15:08.750Z,100.00
2023-02-11T06:17:36.722Z,100.00
2023-02-11T06:20:05.904Z,100.00
2023-02-11T06:22:32.836Z,100.00
2023-02-11T06:25:01.978Z,100.00
2023-02-11T06:27:29.528Z,100.00
2023-02-11T06:29:56.144Z,100.00
2023-02-11T06:32:42.660Z,100.00
2023-02-11T06:35:11.761Z,100.00
2023-02-11T06:37:39.056Z,100.00
2023-02-11T06:40:06.279Z,100.00
2023-02-11T06:42:37.169Z,100.00
2023-02-11T06:45:06.179Z,100.00
2023-02-11T06:47:32.895Z,100.00
2023-02-11T06:49:59.460Z,100.00
2023-02-11T06:52:26.171Z,100.00
2023-02-11T06:55:00.174Z,100.00
2023-02-11T06:57:44.446Z,100.00
2023-02-11T07:00:14.399Z,100.00
2023-02-11T07:02:40.933Z,100.00
2023-02-11T07:05:07.986Z,100.00
2023-02-11T07:07:34.577Z,100.00
2023-02-11T07:10:03.090Z,100.00
2023-02-11T07:12:30.643Z,100.00
2023-02-11T07:14:57.197Z,100.00
2023-02-11T07:17:23.806Z,100.00
2023-02-11T07:19:51.366Z,100.00
2023-02-11T07:22:17.888Z,100.00
2023-02-11T07:24:44.624Z,100.00
2023-02-11T07:27:11.160Z,100.00
2023-02-11T07:29:37.701Z,100.00
2023-02-11T07:32:14.895Z,100.00
2023-02-11T07:34:41.459Z,100.00
2023-02-11T07:37:07.950Z,100.00
2023-02-11T07:39:34.459Z,100.00
2023-02-11T07:42:00.968Z,100.00
2023-02-11T07:44:27.460Z,100.00
2023-02-11T07:46:54.014Z,100.00
2023-02-11T07:49:23.121Z,100.00
2023-02-11T07:51:51.298Z,100.00
2023-02-11T07:54:18.105Z,100.00
2023-02-11T07:56:44.756Z,100.00
2023-02-11T07:59:12.095Z,100.00
2023-02-11T08:01:38.689Z,100.00
2023-02-11T08:04:05.432Z,100.00
2023-02-11T08:06:43.318Z,100.00
2023-02-11T08:09:16.114Z,100.00
2023-02-11T08:11:43.103Z,100.00
2023-02-11T08:14:10.120Z,100.00
2023-02-11T08:16:39.191Z,100.00
2023-02-11T08:19:11.022Z,100.00
2023-02-11T08:21:40.367Z,100.00
2023-02-11T08:24:07.489Z,100.00
2023-02-11T08:26:35.010Z,100.00
2023-02-11T08:29:05.651Z,100.00
2023-02-11T08:31:38.041Z,100.00
2023-02-11T08:34:04.998Z,100.00
2023-02-11T08:36:37.236Z,100.00
2023-02-11T08:39:22.478Z,100.00
2023-02-11T08:41:52.232Z,100.00
2023-02-11T08:44:20.067Z,100.00
2023-02-11T08:46:47.516Z,100.00
2023-02-11T08:49:14.500Z,100.00
2023-02-11T08:51:41.202Z,100.00
2023-02-11T08:54:12.199Z,100.00
2023-02-11T08:56:39.418Z,100.00
2023-02-11T08:59:07.182Z,100.00
2023-02-11T09:01:33.819Z,100.00
2023-02-11T09:04:01.140Z,100.00
2023-02-11T09:06:28.230Z,100.00
2023-02-11T09:08:56.790Z,100.00
2023-02-11T09:11:31.030Z,100.00
2023-02-11T09:13:59.728Z,100.00
2023-02-11T09:16:30.007Z,100.00
2023-02-11T09:18:58.644Z,100.00
2023-02-11T09:21:25.836Z,100.00
2023-02-11T09:23:52.513Z,100.00
2023-02-11T09:26:22.574Z,100.00
2023-02-11T09:28:50.084Z,100.00
2023-02-11T09:31:19.929Z,100.00
2023-02-11T09:33:49.559Z,100.00
2023-02-11T09:36:28.918Z,100.00
2023-02-11T09:38:57.725Z,100.00
2023-02-11T09:41:27.124Z,99.68
2023-02-11T09:43:57.578Z,97.44
2023-02-11T09:46:26.154Z,97.88
2023-02-11T09:48:55.897Z,97.70
2023-02-11T09:51:53.554Z,98.04
2023-02-11T09:54:30.351Z,98.62
2023-02-11T09:56:56.907Z,99.04
2023-02-11T09:59:24.672Z,98.91
2023-02-11T10:01:58.842Z,99.91
2023-02-11T10:04:48.511Z,99.60
2023-02-11T10:07:39.954Z,97.68
2023-02-11T10:10:12.266Z,95.95
2023-02-11T10:12:55.552Z,94.49
2023-02-11T10:15:37.240Z,91.85
2023-02-11T10:18:11.894Z,92.19
2023-02-11T10:20:46.138Z,90.22
2023-02-11T10:23:20.778Z,89.88
2023-02-11T10:25:52.873Z,90.61
2023-02-11T10:28:29.955Z,91.09
2023-02-11T10:31:01.077Z,90.17
2023-02-11T10:33:51.579Z,89.87
2023-02-11T10:36:20.831Z,91.69
2023-02-11T10:38:47.347Z,92.01
2023-02-11T10:41:20.612Z,92.24
2023-02-11T10:43:47.090Z,91.93
2023-02-11T10:46:19.501Z,92.02
2023-02-11T10:48:51.787Z,92.96
2023-02-11T10:51:25.121Z,92.79
2023-02-11T10:54:04.012Z,92.99
2023-02-11T10:56:40.030Z,94.60
2023-02-11T10:59:33.085Z,95.39
2023-02-11T11:02:18.457Z,94.55
2023-02-11T11:04:45.827Z,94.54
2023-02-11T11:07:24.875Z,94.76
2023-02-11T11:09:59.651Z,96.14
2023-02-11T11:12:48.775Z,94.17
2023-02-11T11:15:25.819Z,93.96
2023-02-11T11:18:20.973Z,94.48
2023-02-11T11:21:00.941Z,94.89
2023-02-11T11:23:29.876Z,95.30
2023-02-11T11:26:08.399Z,94.71
2023-02-11T11:28:53.271Z,94.53
2023-02-11T11:32:05.844Z,94.27
2023-02-11T11:34:34.035Z,94.21
2023-02-11T11:37:10.330Z,92.94
2023-02-11T11:39:37.145Z,94.04
2023-02-11T11:42:06.177Z,93.61
2023-02-11T11:44:37.435Z,92.52
2023-02-11T11:47:16.157Z,93.20
2023-02-11T11:50:10.117Z,93.35
2023-02-11T11:53:04.647Z,93.78
2023-02-11T11:55:38.212Z,93.72
2023-02-11T11:58:06.900Z,94.23
2023-02-11T12:01:00.828Z,94.83
2023-02-11T12:04:02.520Z,94.30
2023-02-11T12:07:06.689Z,93.77
2023-02-11T12:09:49.365Z,92.96
2023-02-11T12:12:32.745Z,93.19
2023-02-11T12:15:23.919Z,93.05
2023-02-11T12:17:56.435Z,93.69
2023-02-11T12:20:34.683Z,93.94
2023-02-11T12:23:25.954Z,94.54
2023-02-11T12:26:08.266Z,94.30
2023-02-11T12:29:01.432Z,93.93
2023-02-11T12:31:39.114Z,94.11
2023-02-11T12:34:23.841Z,94.14
2023-02-11T12:37:21.378Z,93.96
2023-02-11T12:39:47.750Z,94.34
2023-02-11T12:42:57.834Z,95.09
2023-02-11T12:45:35.888Z,95.71
2023-02-11T12:48:22.894Z,96.66
2023-02-11T12:51:15.057Z,96.16
2023-02-11T12:54:06.932Z,96.68
2023-02-11T12:56:44.616Z,97.61
2023-02-11T12:59:44.097Z,97.10
2023-02-11T13:02:21.344Z,97.49
2023-02-11T13:04:56.996Z,98.74
2023-02-11T13:07:33.297Z,98.60
2023-02-11T13:10:31.654Z,99.04
2023-02-11T13:13:18.591Z,98.50
2023-02-11T13:15:57.380Z,98.50
2023-02-11T13:18:44.983Z,98.69
2023-02-11T13:21:14.527Z,97.79
2023-02-11T13:24:08.392Z,98.37
2023-02-11T13:26:39.503Z,99.12
2023-02-11T13:29:23.764Z,98.61
2023-02-11T13:32:06.108Z,97.88
2023-02-11T13:34:41.858Z,98.12
2023-02-11T13:37:20.716Z,97.85
2023-02-11T13:40:07.568Z,98.00
2023-02-11T13:42:49.961Z,97.80
2023-02-11T13:45:33.772Z,98.60
2023-02-11T13:48:05.556Z,99.00
2023-02-11T13:50:39.655Z,98.94
2023-02-11T13:53:08.809Z,99.49
2023-02-11T13:55:35.763Z,99.55
2023-02-11T13:58:10.789Z,99.23
2023-02-11T14:00:37.206Z,99.60
2023-02-11T14:03:31.439Z,100.00
2023-02-11T14:06:28.869Z,100.00
2023-02-11T14:09:21.511Z,100.00
2023-02-11T14:11:52.705Z,100.00
2023-02-11T14:14:24.034Z,100.00
2023-02-11T14:16:59.810Z,100.00
2023-02-11T14:19:40.775Z,100.00
2023-02-11T14:22:27.654Z,100.00
2023-02-11T14:24:57.544Z,100.00
2023-02-11T14:27:48.963Z,100.00
2023-02-11T14:30:54.210Z,100.00
2023-02-11T14:33:39.546Z,100.00
2023-02-11T14:36:17.896Z,100.00
2023-02-11T14:38:52.928Z,100.00
2023-02-11T14:41:29.406Z,100.00
2023-02-11T14:43:59.811Z,100.00
2023-02-11T14:46:30.743Z,100.00
2023-02-11T14:49:01.254Z,100.00
2023-02-11T14:51:38.523Z,100.00
2023-02-11T14:54:15.321Z,100.00
2023-02-11T14:56:42.404Z,100.00
2023-02-11T14:59:25.561Z,100.00
2023-02-11T15:01:56.566Z,100.00
2023-02-11T15:04:26.054Z,100.00
2023-02-11T15:06:53.852Z,100.00
2023-02-11T15:09:45.416Z,100.00
2023-02-11T15:12:19.974Z,100.00
2023-02-11T15:14:55.319Z,100.00
2023-02-11T15:17:27.689Z,100.00
2023-02-11T15:19:57.363Z,100.00
2023-02-11T15:22:29.277Z,100.00
2023-02-11T15:25:10.610Z,100.00
2023-02-11T15:27:46.385Z,100.00
2023-02-11T15:30:22.040Z,100.00
2023-02-11T15:32:58.737Z,100.00
2023-02-11T15:35:36.678Z,100.00
2023-02-11T15:38:04.544Z,100.00
2023-02-11T15:40:33.990Z,100.00
2023-02-11T15:43:08.481Z,100.00
2023-02-11T15:45:54.171Z,100.00
2023-02-11T15:48:35.600Z,100.00
2023-02-11T15:51:11.755Z,100.00
2023-02-11T15:53:42.405Z,100.00
2023-02-11T15:56:25.461Z,100.00
2023-02-11T15:58:55.885Z,100.00
2023-02-11T16:01:33.617Z,100.00
2023-02-11T16:04:01.359Z,100.00
2023-02-11T16:06:42.833Z,100.00
2023-02-11T16:09:10.140Z,100.00
2023-02-11T16:11:45.850Z,100.00
2023-02-11T16:14:27.493Z,100.00
2023-02-11T16:16:57.870Z,100.00
2023-02-11T16:19:26.969Z,100.00
2023-02-11T16:22:03.098Z,100.00
2023-02-11T16:24:35.203Z,100.00
2023-02-11T16:27:08.142Z,100.00
2023-02-11T16:29:44.241Z,100.00
2023-02-11T16:32:16.091Z,100.00
2023-02-11T16:34:44.502Z,100.00
2023-02-11T16:37:11.058Z,100.00
2023-02-11T16:39:37.606Z,100.00
2023-02-11T16:42:07.090Z,100.00
2023-02-11T16:44:42.314Z,100.00
2023-02-11T16:47:23.467Z,100.00
2023-02-11T16:49:50.184Z,100.00
2023-02-11T16:52:20.577Z,100.00
2023-02-11T16:54:47.439Z,100.00
2023-02-11T16:57:19.672Z,100.00
2023-02-11T16:59:46.922Z,100.00
2023-02-11T17:02:26.325Z,100.00
2023-02-11T17:04:54.634Z,100.00
2023-02-11T17:07:21.719Z,100.00
2023-02-11T17:09:48.288Z,100.00
2023-02-11T17:12:14.723Z,100.00
2023-02-11T17:14:48.756Z,100.00
2023-02-11T17:17:16.192Z,100.00
2023-02-11T17:19:42.654Z,100.00
2023-02-11T17:22:11.244Z,100.00
2023-02-11T17:24:37.730Z,100.00
2023-02-11T17:27:09.084Z,100.00
2023-02-11T17:29:35.566Z,100.00
2023-02-11T17:32:01.984Z,100.00
2023-02-11T17:34:29.261Z,100.00
2023-02-11T17:36:56.007Z,100.00
2023-02-11T17:39:22.420Z,100.00
2023-02-11T17:41:48.907Z,100.00
2023-02-11T17:44:16.737Z,100.00
2023-02-11T17:46:43.514Z,100.00
2023-02-11T17:49:13.197Z,100.00
2023-02-11T17:51:40.133Z,100.00
2023-02-11T17:54:10.742Z,100.00
2023-02-11T17:56:38.493Z,100.00
2023-02-11T17:59:06.804Z,100.00
2023-02-11T18:01:37.165Z,100.00
2023-02-11T18:04:04.563Z,100.00
2023-02-11T18:06:33.731Z,100.00
2023-02-11T18:09:02.519Z,100.00
2023-02-11T18:11:30.490Z,100.00
2023-02-11T18:13:59.804Z,100.00
2023-02-11T18:16:28.785Z,100.00
2023-02-11T18:18:59.669Z,100.00
2023-02-11T18:21:26.528Z,100.00
2023-02-11T18:23:53.698Z,100.00
2023-02-11T18:26:21.928Z,100.00
2023-02-11T18:28:48.635Z,100.00
2023-02-11T18:31:15.305Z,100.00
2023-02-11T18:33:42.481Z,100.00
2023-02-11T18:36:12.835Z,100.00
2023-02-11T18:38:40.257Z,100.00
2023-02-11T18:41:07.514Z,100.00
2023-02-11T18:43:37.205Z,100.00
2023-02-11T18:46:09.533Z,100.00
2023-02-11T18:48:36.495Z,100.00
2023-02-11T18:51:09.817Z,100.00
2023-02-11T18:53:36.471Z,100.00
2023-02-11T18:56:08.115Z,100.00
2023-02-11T18:58:34.665Z,100.00
2023-02-11T19:01:24.404Z,100.00
2023-02-11T19:03:51.507Z,100.00
2023-02-11T19:06:27.586Z,100.00
2023-02-11T19:08:59.021Z,100.00
2023-02-11T19:11:44.825Z,100.00
2023-02-11T19:14:11.477Z,100.00
2023-02-11T19:16:39.983Z,100.00
2023-02-11T19:19:07.515Z,100.00
2023-02-11T19:21:34.476Z,100.00
2023-02-11T19:24:02.278Z,100.00
2023-02-11T19:26:29.779Z,100.00
2023-02-11T19:28:58.096Z,100.00
2023-02-11T19:31:24.685Z,100.00
2023-02-11T19:33:51.744Z,100.00
2023-02-11T19:36:18.650Z,100.00
2023-02-11T19:38:45.336Z,100.00
2023-02-11T19:41:22.190Z,100.00
2023-02-11T19:43:52.932Z,100.00
2023-02-11T19:46:23.269Z,100.00
2023-02-11T19:48:59.464Z,100.00
2023-02-11T19:51:26.044Z,100.00
2023-02-11T19:53:52.588Z,100.00
2023-02-11T19:56:20.811Z,100.00
2023-02-11T19:58:47.746Z,100.00
2023-02-11T20:01:19.710Z,100.00
2023-02-11T20:03:50.152Z,100.00
2023-02-11T20:06:20.374Z,100.00
2023-02-11T20:08:46.858Z,100.00
2023-02-11T20:11:23.174Z,100.00
2023-02-11T20:13:49.809Z,100.00
2023-02-11T20:16:19.593Z,100.00
2023-02-11T20:18:49.140Z,100.00
2023-02-11T20:21:21.363Z,100.00
2023-02-11T20:23:50.017Z,100.00
2023-02-11T20:26:32.316Z,100.00
2023-02-11T20:29:02.177Z,100.00
2023-02-11T20:31:32.943Z,100.00
2023-02-11T20:34:00.955Z,100.00
2023-02-11T20:36:32.031Z,100.00
2023-02-11T20:39:02.333Z,100.00
2023-02-11T20:41:32.678Z,100.00
2023-02-11T20:44:01.717Z,100.00
2023-02-11T20:46:30.537Z,100.00
2023-02-11T20:48:57.646Z,100.00
2023-02-11T20:51:27.273Z,100.00
2023-02-11T20:54:17.747Z,100.00
2023-02-11T20:56:47.830Z,100.00
2023-02-11T20:59:17.568Z,100.00
2023-02-11T21:01:46.589Z,100.00
2023-02-11T21:04:19.389Z,100.00
2023-02-11T21:06:52.206Z,100.00
2023-02-11T21:09:21.800Z,100.00
2023-02-11T21:11:51.563Z,100.00
2023-02-11T21:14:19.126Z,100.00
2023-02-11T21:16:47.227Z,100.00
2023-02-11T21:19:23.428Z,100.00
2023-02-11T21:21:50.653Z,100.00
2023-02-11T21:24:17.578Z,100.00
2023-02-11T21:26:44.062Z,100.00
2023-02-11T21:29:10.737Z,100.00
2023-02-11T21:31:42.241Z,100.00
2023-02-11T21:34:10.468Z,100.00
2023-02-11T21:36:37.012Z,100.00
2023-02-11T21:39:41.528Z,100.00
2023-02-11T21:42:08.023Z,100.00
2023-02-11T21:44:52.073Z,100.00
2023-02-11T21:47:18.675Z,100.00
2023-02-11T21:49:45.929Z,100.00
2023-02-11T21:52:12.539Z,100.00
2023-02-11T21:54:53.396Z,100.00
2023-02-11T22:00:13.926Z,100.00
2023-02-11T22:02:40.538Z,100.00
2023-02-11T22:05:07.040Z,100.00
2023-02-11T22:07:38.611Z,100.00
2023-02-11T22:10:05.538Z,100.00
2023-02-11T22:12:32.039Z,100.00
2023-02-11T22:14:58.524Z,100.00
2023-02-11T22:17:25.062Z,100.00
2023-02-11T22:19:51.618Z,100.00
2023-02-11T22:22:19.688Z,100.00
2023-02-11T22:24:46.481Z,100.00
2023-02-11T22:27:13.740Z,100.00
2023-02-11T22:29:40.399Z,100.00
2023-02-11T22:32:07.076Z,100.00
2023-02-11T22:34:44.126Z,100.00
2023-02-11T22:37:10.638Z,100.00
2023-02-11T22:39:37.275Z,100.00
2023-02-11T22:42:03.862Z,100.00
2023-02-11T22:44:36.541Z,100.00
2023-02-11T22:47:03.174Z,100.00
2023-02-11T22:49:32.431Z,100.00
2023-02-11T22:51:59.946Z,100.00
2023-02-11T22:54:27.506Z,100.00
2023-02-11T22:57:06.851Z,100.00
2023-02-11T22:59:33.359Z,100.00
2023-02-11T23:01:59.907Z,100.00
2023-02-11T23:04:26.436Z,100.00
2023-02-11T23:06:52.925Z,100.00
2023-02-11T23:09:20.753Z,100.00
2023-02-11T23:11:49.406Z,100.00
2023-02-11T23:14:15.922Z,100.00
2023-02-11T23:16:42.474Z,100.00
2023-02-11T23:19:10.281Z,100.00
2023-02-11T23:21:45.960Z,100.00
2023-02-11T23:24:14.250Z,100.00
2023-02-11T23:26:42.001Z,100.00
2023-02-11T23:29:09.655Z,100.00
2023-02-11T23:31:39.812Z,100.00
2023-02-11T23:34:09.693Z,100.00
2023-02-11T23:36:36.517Z,100.00
2023-02-11T23:39:04.059Z,100.00
2023-02-11T23:41:30.604Z,100.00
2023-02-11T23:43:57.970Z,100.00
2023-02-11T23:46:26.322Z,100.00
2023-02-11T23:48:56.556Z,100.00
2023-02-11T23:51:24.070Z,100.00
2023-02-11T23:53:51.071Z,100.00
2023-02-11T23:56:20.585Z,100.00
2023-02-11T23:58:52.872Z,100.00
